createdAt,value
2016-03-14T08:50:44.975Z,87008
2016-03-14T08:50:58.960Z,87072
2016-03-14T08:51:12.852Z,87168
2016-03-14T08:51:26.930Z,87296
2016-03-14T08:51:40.977Z,87072
2016-03-14T08:51:54.899Z,87456
2016-03-14T08:52:08.918Z,86976
2016-03-14T08:52:23.433Z,86432
2016-03-14T08:52:41.090Z,85664
2016-03-14T08:52:55.105Z,85248
2016-03-14T08:53:09.374Z,84608
2016-03-14T08:53:22.515Z,84128
2016-03-14T08:53:36.405Z,83904
2016-03-14T08:53:50.671Z,84192
2016-03-14T08:54:04.671Z,84864
2016-03-14T08:54:18.626Z,84960
2016-03-14T08:54:32.767Z,86112
2016-03-14T08:54:46.767Z,87392
2016-03-14T08:55:00.845Z,88352
2016-03-14T08:55:14.863Z,89472
2016-03-14T08:55:29.129Z,89952
2016-03-14T08:55:43.129Z,90368
2016-03-14T08:55:57.145Z,90784
2016-03-14T08:56:11.101Z,90592
2016-03-14T08:56:25.116Z,90240
2016-03-14T08:56:39.132Z,89728
2016-03-14T08:56:53.007Z,89408
2016-03-14T08:57:06.913Z,89440
2016-03-14T08:57:20.790Z,89344
2016-03-14T08:57:34.665Z,89056
2016-03-14T08:57:48.681Z,88800
2016-03-14T08:58:02.634Z,88704
2016-03-14T08:58:16.528Z,88896
2016-03-14T08:58:30.653Z,89088
2016-03-14T08:58:44.543Z,88896
2016-03-14T08:58:58.543Z,88864
2016-03-14T08:59:12.515Z,88768
2016-03-14T08:59:26.890Z,88928
2016-03-14T08:59:40.906Z,88704
2016-03-14T08:59:54.859Z,89504
2016-03-14T09:00:09.159Z,89952
2016-03-14T09:00:23.127Z,90016
2016-03-14T09:00:37.034Z,90112
2016-03-14T09:00:51.034Z,90784
2016-03-14T09:01:04.862Z,91232
2016-03-14T09:01:18.723Z,91392
2016-03-14T09:01:32.567Z,91552
2016-03-14T09:01:46.645Z,91680
2016-03-14T09:02:00.739Z,91296
2016-03-14T09:02:17.617Z,91744
2016-03-14T09:02:31.710Z,92480
2016-03-14T09:02:45.742Z,91680
2016-03-14T09:02:59.617Z,91776
2016-03-14T09:03:14.228Z,92288
2016-03-14T09:03:28.009Z,92192
2016-03-14T09:03:41.916Z,92800
2016-03-14T09:03:56.025Z,92352
2016-03-14T09:04:09.825Z,92352
2016-03-14T09:04:23.715Z,91744
2016-03-14T09:04:37.653Z,92064
2016-03-14T09:04:51.903Z,91456
2016-03-14T09:05:05.997Z,91360
2016-03-14T09:05:19.937Z,91072
2016-03-14T09:05:33.625Z,91520
2016-03-14T09:05:47.468Z,90912
2016-03-14T09:06:01.406Z,90240
2016-03-14T09:06:15.550Z,89888
2016-03-14T09:06:29.690Z,89984
2016-03-14T09:06:43.721Z,90304
2016-03-14T09:06:58.471Z,90432
2016-03-14T09:07:12.473Z,90272
2016-03-14T09:07:26.552Z,90432
2016-03-14T09:07:40.520Z,90368
2016-03-14T09:07:54.255Z,90560
2016-03-14T09:08:08.289Z,90560
2016-03-14T09:08:22.289Z,90400
2016-03-14T09:08:36.414Z,90112
2016-03-14T09:08:50.476Z,89856
2016-03-14T09:09:04.742Z,89696
2016-03-14T09:09:18.697Z,90464
2016-03-14T09:09:32.713Z,89952
2016-03-14T09:09:46.978Z,90176
2016-03-14T09:10:00.978Z,90240
2016-03-14T09:10:15.450Z,90848
2016-03-14T09:10:29.450Z,91264
2016-03-14T09:10:43.466Z,91680
2016-03-14T09:10:57.856Z,92512
2016-03-14T09:11:11.859Z,92416
2016-03-14T09:11:25.719Z,92896
2016-03-14T09:11:39.938Z,93280
2016-03-14T09:11:53.844Z,93632
2016-03-14T09:12:07.859Z,93280
2016-03-14T09:12:21.736Z,93088
2016-03-14T09:12:35.736Z,92992
2016-03-14T09:12:49.643Z,91616
2016-03-14T09:13:03.627Z,91264
2016-03-14T09:13:16.739Z,90464
2016-03-14T09:13:31.052Z,90016
2016-03-14T09:13:45.427Z,89664
2016-03-14T09:13:59.271Z,88736
2016-03-14T09:14:13.211Z,88576
2016-03-14T09:14:27.727Z,88288
2016-03-14T09:14:41.602Z,88768
2016-03-14T09:14:55.867Z,88992
2016-03-14T09:15:09.839Z,89120
2016-03-14T09:15:24.027Z,89440
2016-03-14T09:15:37.980Z,90240
2016-03-14T09:15:52.120Z,91264
2016-03-14T09:16:05.870Z,92480
2016-03-14T09:16:20.013Z,93024
2016-03-14T09:16:33.904Z,93312
2016-03-14T09:16:47.919Z,93856
2016-03-14T09:17:01.857Z,93632
2016-03-14T09:17:16.125Z,93376
2016-03-14T09:17:30.079Z,92480
2016-03-14T09:17:43.954Z,92192
2016-03-14T09:17:57.969Z,89248
2016-03-14T09:18:12.612Z,90688
2016-03-14T09:18:26.002Z,90368
2016-03-14T09:18:39.940Z,90720
2016-03-14T09:18:53.956Z,90880
2016-03-14T09:19:07.956Z,91744
2016-03-14T09:19:22.116Z,92416
2016-03-14T09:19:36.491Z,93088
2016-03-14T09:19:50.381Z,94240
2016-03-14T09:20:04.522Z,94272
2016-03-14T09:20:18.712Z,94912
2016-03-14T09:20:32.868Z,94752
2016-03-14T09:20:46.868Z,94080
2016-03-14T09:21:00.883Z,92512
2016-03-14T09:21:14.886Z,90752
2016-03-14T09:21:28.933Z,92192
2016-03-14T09:21:42.980Z,91104
2016-03-14T09:21:57.027Z,91008
2016-03-14T09:22:10.888Z,105408
2016-03-14T09:22:52.842Z,94240
2016-03-14T09:23:06.732Z,95072
2016-03-14T09:23:20.626Z,94688
2016-03-14T09:23:34.766Z,94208
2016-03-14T09:23:48.829Z,93056
2016-03-14T09:24:03.220Z,93568
2016-03-14T09:24:17.425Z,93856
2016-03-14T09:24:31.440Z,93632
2016-03-14T09:24:45.315Z,94336
2016-03-14T09:24:59.753Z,94112
2016-03-14T09:25:13.960Z,93568
2016-03-14T09:25:28.085Z,94240
2016-03-14T09:25:42.116Z,93632
2016-03-14T09:25:56.007Z,94400
2016-03-14T09:26:10.134Z,93504
2016-03-14T09:26:24.212Z,96736
2016-03-14T09:26:38.290Z,95328
2016-03-14T09:26:52.743Z,93376
2016-03-14T09:27:06.821Z,95104
2016-03-14T09:27:20.840Z,94624
2016-03-14T09:27:34.856Z,95616
2016-03-14T09:27:48.715Z,95808
2016-03-14T09:28:02.809Z,95904
2016-03-14T09:28:16.811Z,94848
2016-03-14T09:28:30.701Z,95584
2016-03-14T09:28:44.576Z,94912
2016-03-14T09:28:58.592Z,94240
2016-03-14T09:29:12.892Z,94880
2016-03-14T09:29:26.142Z,95008
2016-03-14T09:29:40.267Z,95136
2016-03-14T09:29:54.236Z,96352
2016-03-14T09:30:08.442Z,96000
2016-03-14T09:30:22.192Z,96576
2016-03-14T09:30:35.457Z,95008
2016-03-14T09:30:49.660Z,97216
2016-03-14T09:31:03.739Z,96480
2016-03-14T09:31:17.678Z,95712
2016-03-14T09:31:31.741Z,94944
2016-03-14T09:31:45.756Z,94880
2016-03-14T09:31:59.834Z,94880
2016-03-14T09:32:14.026Z,94016
2016-03-14T09:32:27.729Z,94720
2016-03-14T09:32:41.995Z,94336
2016-03-14T09:32:56.135Z,94912
2016-03-14T09:33:10.153Z,95584
2016-03-14T09:33:24.200Z,95360
2016-03-14T09:33:38.293Z,93568
2016-03-14T09:33:52.184Z,93280
2016-03-14T09:34:06.262Z,95008
2016-03-14T09:34:20.328Z,95680
2016-03-14T09:34:34.640Z,97376
2016-03-14T09:34:49.031Z,97120
2016-03-14T09:35:03.140Z,96736
2016-03-14T09:35:17.455Z,95104
2016-03-14T09:35:31.580Z,96096
2016-03-14T09:35:45.720Z,95008
2016-03-14T09:35:59.798Z,94784
2016-03-14T09:36:13.739Z,95072
2016-03-14T09:36:27.317Z,96096
2016-03-14T09:36:41.333Z,95328
2016-03-14T09:36:55.286Z,95232
2016-03-14T09:37:09.226Z,95264
2016-03-14T09:37:23.179Z,94400
2016-03-14T09:37:37.445Z,95008
2016-03-14T09:37:51.679Z,95072
2016-03-14T09:38:05.711Z,95872
2016-03-14T09:38:19.729Z,96896
2016-03-14T09:38:33.667Z,96960
2016-03-14T09:38:47.682Z,96992
2016-03-14T09:39:01.807Z,96480
2016-03-14T09:39:16.138Z,95232
2016-03-14T09:39:30.153Z,96576
2016-03-14T09:39:44.184Z,96416
2016-03-14T09:39:58.481Z,95392
2016-03-14T09:40:12.562Z,96608
2016-03-14T09:40:26.578Z,96448
2016-03-14T09:40:40.578Z,96928
2016-03-14T09:40:54.469Z,97536
2016-03-14T09:41:08.675Z,96128
2016-03-14T09:41:22.800Z,100928
2016-03-14T09:41:36.690Z,102368
2016-03-14T09:41:50.831Z,105984
2016-03-14T09:42:04.722Z,110016
2016-03-14T09:42:18.678Z,114816
2016-03-14T09:42:33.193Z,121120
2016-03-14T09:42:47.193Z,121344
2016-03-14T09:43:01.209Z,119168
2016-03-14T09:43:15.789Z,125216
2016-03-14T09:43:29.742Z,126528
2016-03-14T09:43:43.680Z,124096
2016-03-14T09:43:57.555Z,121888
2016-03-14T09:44:10.714Z,118912
2016-03-14T09:44:24.714Z,115712
2016-03-14T09:44:38.667Z,112832
2016-03-14T09:44:52.683Z,111008
2016-03-14T09:45:05.964Z,108000
2016-03-14T09:45:20.076Z,108032
2016-03-14T09:45:34.358Z,105984
2016-03-14T09:45:48.608Z,107904
2016-03-14T09:46:02.608Z,105376
2016-03-14T09:46:44.735Z,106624
2016-03-14T09:46:58.875Z,107040
2016-03-14T09:47:12.816Z,107712
2016-03-14T09:47:26.706Z,108128
2016-03-14T09:47:40.785Z,106432
2016-03-14T09:47:55.394Z,106144
2016-03-14T09:48:09.599Z,105152
2016-03-14T09:48:23.818Z,105472
2016-03-14T09:48:38.130Z,104480
2016-03-14T09:48:52.146Z,104480
2016-03-14T09:49:06.193Z,103360
2016-03-14T09:49:20.211Z,104448
2016-03-14T09:49:33.993Z,104224
2016-03-14T09:49:48.305Z,105248
2016-03-14T09:50:02.446Z,104832
2016-03-14T09:50:16.621Z,104224
2016-03-14T09:50:30.855Z,104544
2016-03-14T09:50:44.996Z,105376
2016-03-14T09:50:59.011Z,102848
2016-03-14T09:51:13.013Z,104896
2016-03-14T09:51:27.029Z,105472
2016-03-14T09:51:41.279Z,106080
2016-03-14T09:51:55.638Z,106496
2016-03-14T09:52:09.861Z,107008
2016-03-14T09:52:23.986Z,107264
2016-03-14T09:52:38.002Z,107776
2016-03-14T09:52:52.017Z,108096
2016-03-14T09:53:06.049Z,107072
2016-03-14T09:53:20.394Z,109024
2016-03-14T09:53:34.316Z,106848
2016-03-14T09:53:48.269Z,107168
2016-03-14T09:54:02.519Z,106112
2016-03-14T09:54:16.725Z,106304
2016-03-14T09:54:30.725Z,104672
2016-03-14T09:54:44.804Z,101632
2016-03-14T09:54:59.335Z,108288
2016-03-14T09:55:14.337Z,100128
2016-03-14T09:55:28.509Z,107552
2016-03-14T09:55:42.681Z,107456
2016-03-14T09:55:56.540Z,106400
2016-03-14T09:56:10.668Z,105888
2016-03-14T09:56:24.824Z,105536
2016-03-14T09:56:38.949Z,105280
2016-03-14T09:56:53.027Z,105088
2016-03-14T09:57:07.074Z,105184
2016-03-14T09:57:21.107Z,104992
2016-03-14T09:57:49.201Z,104896
2016-03-14T09:58:03.498Z,106784
2016-03-14T09:58:17.657Z,110144
2016-03-14T09:58:31.689Z,113152
2016-03-14T09:58:45.548Z,117056
2016-03-14T09:58:59.564Z,118944
2016-03-14T09:59:13.582Z,119392
2016-03-14T09:59:27.692Z,120832
2016-03-14T09:59:41.723Z,119680
2016-03-14T09:59:55.910Z,118528
2016-03-14T10:00:09.895Z,115808
2016-03-14T10:00:24.257Z,112128
2016-03-14T10:00:38.413Z,110496
2016-03-14T10:00:53.038Z,108448
2016-03-14T10:01:07.210Z,107104
2016-03-14T10:01:21.573Z,106976
2016-03-14T10:01:35.494Z,106720
2016-03-14T10:01:48.885Z,106368
2016-03-14T10:02:03.291Z,106688
2016-03-14T10:02:17.262Z,106560
2016-03-14T10:02:30.575Z,105632
2016-03-14T10:02:44.684Z,106464
2016-03-14T10:02:58.700Z,107456
2016-03-14T10:03:12.906Z,106304
2016-03-14T10:03:26.921Z,106592
2016-03-14T10:03:40.765Z,109152
2016-03-14T10:03:54.828Z,107136
2016-03-14T10:04:22.893Z,108480
2016-03-14T10:04:37.440Z,105216
2016-03-14T10:04:51.377Z,107040
2016-03-14T10:05:05.393Z,107008
2016-03-14T10:05:19.504Z,107392
2016-03-14T10:05:33.895Z,107424
2016-03-14T10:05:47.786Z,108352
2016-03-14T10:06:01.739Z,107296
2016-03-14T10:06:15.492Z,107456
2016-03-14T10:06:29.590Z,108864
2016-03-14T10:06:43.715Z,108288
2016-03-14T10:06:58.184Z,107936
2016-03-14T10:07:11.611Z,107904
2016-03-14T10:07:25.629Z,106432
2016-03-14T10:07:39.582Z,108640
2016-03-14T10:07:53.597Z,109632
2016-03-14T10:08:07.707Z,109664
2016-03-14T10:08:21.804Z,108224
2016-03-14T10:08:35.758Z,107008
2016-03-14T10:08:50.054Z,109472
2016-03-14T10:09:04.695Z,107840
2016-03-14T10:09:18.603Z,107584
2016-03-14T10:09:32.681Z,106048
2016-03-14T10:09:46.603Z,105728
2016-03-14T10:10:00.728Z,104768
2016-03-14T10:10:14.888Z,104224
2016-03-14T10:10:28.856Z,105472
2016-03-14T10:10:45.841Z,104512
2016-03-14T10:11:14.171Z,107456
2016-03-14T10:11:28.358Z,107168
2016-03-14T10:11:42.686Z,108672
2016-03-14T10:11:56.874Z,107360
2016-03-14T10:12:10.921Z,106848
2016-03-14T10:12:24.736Z,103968
2016-03-14T10:12:38.799Z,106368
2016-03-14T10:12:52.752Z,105088
2016-03-14T10:13:06.502Z,106304
2016-03-14T10:13:20.521Z,106304
2016-03-14T10:13:34.771Z,105920
2016-03-14T10:13:48.724Z,105088
2016-03-14T10:14:03.005Z,105728
2016-03-14T10:14:17.133Z,104640
2016-03-14T10:14:31.149Z,105856
2016-03-14T10:14:45.352Z,105472
2016-03-14T10:14:59.289Z,106240
2016-03-14T10:15:13.244Z,107104
2016-03-14T10:15:26.213Z,107200
2016-03-14T10:15:40.447Z,108256
2016-03-14T10:15:54.463Z,109024
2016-03-14T10:16:08.463Z,109728
2016-03-14T10:16:22.747Z,110336
2016-03-14T10:16:36.763Z,111040
2016-03-14T10:16:50.997Z,111936
2016-03-14T10:17:04.904Z,111008
2016-03-14T10:17:17.999Z,111840
2016-03-14T10:17:32.015Z,111648
2016-03-14T10:17:46.359Z,111328
2016-03-14T10:18:00.562Z,111200
2016-03-14T10:18:14.534Z,110624
2016-03-14T10:18:28.659Z,110144
2016-03-14T10:18:42.565Z,110144
2016-03-14T10:18:56.768Z,111328
2016-03-14T10:19:11.018Z,110720
2016-03-14T10:19:25.021Z,110560
2016-03-14T10:19:39.224Z,110912
2016-03-14T10:19:53.146Z,111424
2016-03-14T10:20:07.224Z,110912
2016-03-14T10:20:21.085Z,112032
2016-03-14T10:20:35.351Z,112384
2016-03-14T10:20:49.742Z,112896
2016-03-14T10:21:03.976Z,113280
2016-03-14T10:21:18.058Z,114208
2016-03-14T10:21:32.011Z,114528
2016-03-14T10:21:46.339Z,114240
2016-03-14T10:22:00.605Z,113760
2016-03-14T10:22:14.498Z,114944
2016-03-14T10:22:28.373Z,115616
2016-03-14T10:22:42.716Z,114912
2016-03-14T10:22:56.826Z,115040
2016-03-14T10:23:10.779Z,115712
2016-03-14T10:23:24.782Z,115200
2016-03-14T10:23:38.735Z,115520
2016-03-14T10:23:52.844Z,115776
2016-03-14T10:24:06.829Z,114560
2016-03-14T10:24:20.971Z,116864
2016-03-14T10:24:34.987Z,116384
2016-03-14T10:24:49.003Z,117248
2016-03-14T10:25:03.315Z,116832
2016-03-14T10:25:17.756Z,117120
2016-03-14T10:25:32.334Z,118592
2016-03-14T10:25:46.709Z,117152
2016-03-14T10:26:00.849Z,119136
2016-03-14T10:26:14.993Z,119744
2016-03-14T10:26:29.134Z,121280
2016-03-14T10:26:43.384Z,120928
2016-03-14T10:26:57.399Z,121440
2016-03-14T10:27:11.399Z,121248
2016-03-14T10:27:25.401Z,121760
2016-03-14T10:27:39.448Z,119904
2016-03-14T10:27:54.073Z,120928
2016-03-14T10:28:08.011Z,119488
2016-03-14T10:28:22.062Z,119712
2016-03-14T10:28:35.983Z,119456
2016-03-14T10:28:50.421Z,120320
2016-03-14T10:29:04.983Z,119744
2016-03-14T10:29:18.892Z,119328
2016-03-14T10:29:32.892Z,119296
2016-03-14T10:29:47.157Z,120288
2016-03-14T10:30:00.314Z,119520
2016-03-14T10:30:14.426Z,119904
2016-03-14T10:30:28.520Z,119008
2016-03-14T10:30:42.520Z,119360
2016-03-14T10:30:56.895Z,117728
2016-03-14T10:31:10.801Z,116896
2016-03-14T10:31:24.928Z,116768
2016-03-14T10:31:39.178Z,116512
2016-03-14T10:31:53.522Z,115680
2016-03-14T10:32:07.397Z,116096
2016-03-14T10:32:21.431Z,116192
2016-03-14T10:32:35.618Z,115904
2016-03-14T10:32:49.759Z,117248
2016-03-14T10:33:03.759Z,118592
2016-03-14T10:33:17.668Z,119520
2016-03-14T10:33:31.918Z,120544
2016-03-14T10:33:46.043Z,121888
2016-03-14T10:33:59.934Z,122752
2016-03-14T10:34:14.093Z,123712
2016-03-14T10:34:28.203Z,124768
2016-03-14T10:34:42.968Z,124832
2016-03-14T10:34:56.999Z,125376
2016-03-14T10:35:11.109Z,126816
2016-03-14T10:35:25.064Z,127712
2016-03-14T10:35:39.142Z,127872
2016-03-14T10:35:53.158Z,129216
2016-03-14T10:36:07.095Z,129472
2016-03-14T10:36:21.222Z,128768
2016-03-14T10:36:35.003Z,128512
2016-03-14T10:36:49.253Z,128224
2016-03-14T10:37:03.160Z,127264
2016-03-14T10:37:17.163Z,125632
2016-03-14T10:37:31.178Z,124032
2016-03-14T10:37:45.241Z,123680
2016-03-14T10:37:59.131Z,122048
2016-03-14T10:38:13.025Z,122400
2016-03-14T10:38:26.931Z,123008
2016-03-14T10:38:40.931Z,122016
2016-03-14T10:38:55.009Z,122592
2016-03-14T10:39:23.153Z,123616
2016-03-14T10:39:37.122Z,123840
2016-03-14T10:39:51.075Z,123904
2016-03-14T10:40:04.997Z,122752
2016-03-14T10:40:18.968Z,122656
2016-03-14T10:40:33.093Z,121056
2016-03-14T10:40:50.124Z,122080
2016-03-14T10:41:04.155Z,121376
2016-03-14T10:41:18.033Z,121312
2016-03-14T10:41:31.971Z,122272
2016-03-14T10:41:45.955Z,121696
2016-03-14T10:41:59.892Z,121920
2016-03-14T10:42:14.224Z,122752
2016-03-14T10:42:28.224Z,123456
2016-03-14T10:42:42.489Z,124672
2016-03-14T10:42:56.505Z,125696
2016-03-14T10:43:10.536Z,126176
2016-03-14T10:43:24.789Z,127200
2016-03-14T10:43:38.789Z,127488
2016-03-14T10:43:52.898Z,128384
2016-03-14T10:44:06.820Z,129472
2016-03-14T10:44:20.947Z,130528
2016-03-14T10:44:35.072Z,130816
2016-03-14T10:44:49.416Z,131296
2016-03-14T10:45:03.338Z,131936
2016-03-14T10:45:17.560Z,132256
2016-03-14T10:45:31.622Z,132704
2016-03-14T10:45:45.466Z,132672
2016-03-14T10:45:58.700Z,132960
2016-03-14T10:46:12.610Z,132320
2016-03-14T10:46:26.500Z,131168
2016-03-14T10:46:40.578Z,130176
2016-03-14T10:46:55.094Z,129344
2016-03-14T10:47:09.203Z,128288
2016-03-14T10:47:23.362Z,126560
2016-03-14T10:47:37.268Z,126016
2016-03-14T10:47:51.237Z,124864
2016-03-14T10:48:05.299Z,123360
2016-03-14T10:48:19.365Z,122176
2016-03-14T10:48:33.458Z,120608
2016-03-14T10:48:50.505Z,119808
2016-03-14T10:49:04.365Z,117728
2016-03-14T10:49:18.493Z,118016
2016-03-14T10:49:32.383Z,119392
2016-03-14T10:49:46.461Z,121664
2016-03-14T10:50:00.524Z,125248
2016-03-14T10:50:14.604Z,128288
2016-03-14T10:50:42.760Z,137184
2016-03-14T10:50:56.838Z,142528
2016-03-14T10:51:10.838Z,145792
2016-03-14T10:51:24.857Z,148672
2016-03-14T10:51:38.748Z,149952
2016-03-14T10:51:52.888Z,147360
2016-03-14T10:52:06.154Z,143104
2016-03-14T10:52:20.359Z,138400
2016-03-14T10:52:34.609Z,133088
2016-03-14T10:52:48.828Z,116672
2016-03-14T10:53:02.765Z,106592
2016-03-14T10:53:16.831Z,95040
2016-03-14T10:53:30.956Z,85664
2016-03-14T10:53:44.862Z,71488
2016-03-14T10:53:58.893Z,64320
2016-03-14T10:54:12.331Z,59392
2016-03-14T10:54:26.584Z,50784
2016-03-14T10:54:40.646Z,47232
2016-03-14T10:54:54.662Z,44128
2016-03-14T10:55:08.677Z,42016
2016-03-14T10:55:22.820Z,40736
2016-03-14T10:55:37.023Z,39584
2016-03-14T10:55:50.914Z,39040
2016-03-14T10:56:04.929Z,38592
2016-03-14T10:56:19.121Z,38240
2016-03-14T10:56:33.262Z,38176
2016-03-14T10:56:47.387Z,37984
2016-03-14T10:57:01.277Z,37952
2016-03-14T10:57:15.107Z,37792
2016-03-14T10:57:29.029Z,37920
2016-03-14T10:57:42.982Z,37952
2016-03-14T10:57:57.185Z,37664
2016-03-14T10:58:11.576Z,37760
2016-03-14T10:58:25.767Z,37984
2016-03-14T10:58:39.798Z,37408
2016-03-14T10:58:53.751Z,37632
2016-03-14T10:59:07.782Z,37440
2016-03-14T10:59:21.894Z,37728
2016-03-14T10:59:36.097Z,37888
2016-03-14T10:59:50.362Z,38176
2016-03-14T11:00:04.128Z,38720
2016-03-14T11:00:18.803Z,39264
2016-03-14T11:00:32.772Z,40192
2016-03-14T11:00:47.053Z,41120
2016-03-14T11:01:01.007Z,42080
2016-03-14T11:01:15.166Z,43200
2016-03-14T11:01:29.260Z,44064
2016-03-14T11:01:43.338Z,45280
2016-03-14T11:01:57.322Z,46176
2016-03-14T11:02:11.432Z,46976
2016-03-14T11:02:25.653Z,47840
2016-03-14T11:02:39.871Z,48384
2016-03-14T11:02:53.762Z,49088
2016-03-14T11:03:07.871Z,49728
2016-03-14T11:03:21.937Z,50368
2016-03-14T11:03:36.046Z,50816
2016-03-14T11:03:49.890Z,51360
2016-03-14T11:04:03.765Z,51968
2016-03-14T11:04:17.721Z,52608
2016-03-14T11:04:31.893Z,53216
2016-03-14T11:04:45.737Z,53760
2016-03-14T11:04:59.877Z,54240
2016-03-14T11:05:13.771Z,55104
2016-03-14T11:05:27.662Z,55744
2016-03-14T11:05:41.662Z,56320
2016-03-14T11:05:55.880Z,56768
2016-03-14T11:06:09.755Z,56928
2016-03-14T11:06:23.992Z,57312
2016-03-14T11:06:37.835Z,57600
2016-03-14T11:06:52.195Z,58336
2016-03-14T11:07:06.414Z,58688
2016-03-14T11:07:20.370Z,60032
2016-03-14T11:07:34.401Z,61216
2016-03-14T11:07:48.323Z,62880
2016-03-14T11:08:02.463Z,64288
2016-03-14T11:08:16.420Z,65632
2016-03-14T11:08:30.670Z,66560
2016-03-14T11:08:44.701Z,67520
2016-03-14T11:08:58.638Z,68000
2016-03-14T11:09:12.718Z,67328
2016-03-14T11:09:26.672Z,67904
2016-03-14T11:09:40.906Z,67296
2016-03-14T11:09:54.984Z,67520
2016-03-14T11:10:08.937Z,67104
2016-03-14T11:10:23.550Z,67680
2016-03-14T11:10:36.846Z,68096
2016-03-14T11:10:51.034Z,69696
2016-03-14T11:11:05.050Z,70880
2016-03-14T11:11:19.083Z,73568
2016-03-14T11:11:33.520Z,75104
2016-03-14T11:11:47.661Z,77120
2016-03-14T11:12:01.661Z,78496
2016-03-14T11:12:15.805Z,79488
2016-03-14T11:12:29.883Z,79360
2016-03-14T11:12:44.258Z,79488
2016-03-14T11:12:58.508Z,80448
2016-03-14T11:13:12.729Z,80480
2016-03-14T11:13:26.917Z,81216
2016-03-14T11:13:40.933Z,82688
2016-03-14T11:13:54.886Z,83904
2016-03-14T11:14:08.839Z,85088
2016-03-14T11:14:22.795Z,86432
2016-03-14T11:14:37.389Z,88096
2016-03-14T11:14:51.295Z,89792
2016-03-14T11:15:05.436Z,91232
2016-03-14T11:15:19.579Z,91808
2016-03-14T11:15:33.657Z,92128
2016-03-14T11:15:47.985Z,93536
2016-03-14T11:16:01.985Z,93568
2016-03-14T11:16:16.003Z,93056
2016-03-14T11:16:30.050Z,92480
2016-03-14T11:16:44.097Z,91328
2016-03-14T11:16:58.097Z,89952
2016-03-14T11:17:12.144Z,88320
2016-03-14T11:17:26.256Z,87680
2016-03-14T11:17:40.319Z,85344
2016-03-14T11:18:08.350Z,84544
2016-03-14T11:18:22.633Z,84576
2016-03-14T11:18:36.805Z,84320
2016-03-14T11:18:50.961Z,84000
2016-03-14T11:19:04.086Z,84320
2016-03-14T11:19:17.589Z,83808
2016-03-14T11:19:31.620Z,82656
2016-03-14T11:19:46.167Z,82176
2016-03-14T11:20:00.136Z,81280
2016-03-14T11:20:14.248Z,80736
2016-03-14T11:20:28.170Z,80000
2016-03-14T11:20:42.248Z,79104
2016-03-14T11:20:56.123Z,77920
2016-03-14T11:21:10.155Z,76224
2016-03-14T11:21:24.142Z,73696
2016-03-14T11:21:38.036Z,71616
2016-03-14T11:21:51.973Z,69056
2016-03-14T11:22:05.817Z,68256
2016-03-14T11:22:19.960Z,67392
2016-03-14T11:22:33.960Z,68000
2016-03-14T11:22:47.850Z,69184
2016-03-14T11:23:01.319Z,71040
2016-03-14T11:23:29.274Z,77408
2016-03-14T11:23:42.649Z,79424
2016-03-14T11:23:56.618Z,81632
2016-03-14T11:24:10.133Z,84864
2016-03-14T11:24:24.027Z,85664
2016-03-14T11:24:37.918Z,87424
2016-03-14T11:24:52.136Z,89024
2016-03-14T11:25:06.277Z,90176
2016-03-14T11:25:20.186Z,90912
2016-03-14T11:25:34.389Z,92480
2016-03-14T11:25:47.593Z,93728
2016-03-14T11:26:01.796Z,94624
2016-03-14T11:26:15.861Z,95552
2016-03-14T11:26:29.752Z,96256
2016-03-14T11:26:43.971Z,96128
2016-03-14T11:26:58.064Z,95904
2016-03-14T11:27:12.299Z,96256
2016-03-14T11:27:26.238Z,96320
2016-03-14T11:27:40.988Z,96352
2016-03-14T11:27:55.394Z,96192
2016-03-14T11:28:09.285Z,97120
2016-03-14T11:28:23.476Z,97760
2016-03-14T11:28:37.538Z,97504
2016-03-14T11:28:51.429Z,98272
2016-03-14T11:29:05.444Z,98176
2016-03-14T11:29:19.697Z,98048
2016-03-14T11:29:33.713Z,97504
2016-03-14T11:29:47.604Z,96896
2016-03-14T11:30:01.557Z,95936
2016-03-14T11:30:15.762Z,95328
2016-03-14T11:30:32.621Z,94016
2016-03-14T11:30:46.762Z,94208
2016-03-14T11:31:00.902Z,92800
2016-03-14T11:31:14.297Z,92768
2016-03-14T11:31:42.610Z,92320
2016-03-14T11:31:56.750Z,92544
2016-03-14T11:32:10.766Z,92320
2016-03-14T11:32:28.143Z,92928
2016-03-14T11:32:42.080Z,92832
2016-03-14T11:32:56.033Z,92928
2016-03-14T11:33:10.783Z,92832
2016-03-14T11:33:25.177Z,93280
2016-03-14T11:33:39.130Z,93088
2016-03-14T11:33:53.130Z,94208
2016-03-14T11:34:06.771Z,94592
2016-03-14T11:34:20.711Z,94912
2016-03-14T11:34:35.539Z,93920
2016-03-14T11:34:49.680Z,93120
2016-03-14T11:35:35.338Z,91424
2016-03-14T11:35:49.635Z,91200
2016-03-14T11:36:03.870Z,91296
2016-03-14T11:36:18.263Z,91296
2016-03-14T11:36:32.232Z,91488
2016-03-14T11:36:46.185Z,91648
2016-03-14T11:36:59.998Z,93312
2016-03-14T11:37:14.015Z,92384
2016-03-14T11:37:28.218Z,92352
2016-03-14T11:37:42.687Z,92704
2016-03-14T11:37:56.656Z,93376
2016-03-14T11:38:10.625Z,93696
2016-03-14T11:38:24.940Z,94080
2016-03-14T11:38:38.956Z,94528
2016-03-14T11:38:52.971Z,94528
2016-03-14T11:39:07.237Z,94496
2016-03-14T11:39:21.115Z,93888
2016-03-14T11:39:35.256Z,93504
2016-03-14T11:39:49.240Z,93440
2016-03-14T11:40:17.492Z,92672
2016-03-14T11:40:30.695Z,92576
2016-03-14T11:40:44.508Z,93664
2016-03-14T11:40:58.461Z,93984
2016-03-14T11:41:12.836Z,94848
2016-03-14T11:41:26.855Z,95424
2016-03-14T11:41:40.746Z,96352
2016-03-14T11:41:54.668Z,97600
2016-03-14T11:42:08.652Z,96288
2016-03-14T11:42:22.779Z,96000
2016-03-14T11:42:36.795Z,95072
2016-03-14T11:42:50.748Z,94272
2016-03-14T11:43:04.748Z,93728
2016-03-14T11:43:19.141Z,93408
2016-03-14T11:43:33.047Z,93696
2016-03-14T11:43:47.031Z,93984
2016-03-14T11:44:01.016Z,94688
2016-03-14T11:44:15.378Z,95104
2016-03-14T11:44:29.144Z,95168
2016-03-14T11:44:43.097Z,94848
2016-03-14T11:44:57.597Z,94784
2016-03-14T11:45:11.815Z,94368
2016-03-14T11:45:25.803Z,94208
2016-03-14T11:45:40.006Z,93984
2016-03-14T11:45:53.897Z,94432
2016-03-14T11:46:07.912Z,94784
2016-03-14T11:46:21.993Z,95200
2016-03-14T11:46:35.993Z,95680
2016-03-14T11:46:49.759Z,95872
2016-03-14T11:47:04.025Z,95328
2016-03-14T11:47:18.042Z,95360
2016-03-14T11:47:32.480Z,95424
2016-03-14T11:47:46.417Z,95104
2016-03-14T11:48:00.464Z,95040
2016-03-14T11:48:14.576Z,95328
2016-03-14T11:48:28.780Z,95008
2016-03-14T11:48:43.108Z,95104
2016-03-14T11:48:57.108Z,94944
2016-03-14T11:49:11.061Z,94912
2016-03-14T11:49:25.017Z,94592
2016-03-14T11:49:38.642Z,94496
2016-03-14T11:49:52.923Z,95008
2016-03-14T11:50:07.376Z,95456
2016-03-14T11:50:21.926Z,96000
2016-03-14T11:50:35.895Z,96864
2016-03-14T11:50:50.442Z,97312
2016-03-14T11:51:04.661Z,98016
2016-03-14T11:51:19.022Z,99232
2016-03-14T11:51:33.225Z,99040
2016-03-14T11:51:47.444Z,99264
2016-03-14T11:52:01.397Z,99296
2016-03-14T11:52:15.541Z,98976
2016-03-14T11:52:29.462Z,98144
2016-03-14T11:52:43.791Z,98048
2016-03-14T11:53:17.527Z,95776
2016-03-14T11:53:31.543Z,95264
2016-03-14T11:53:45.714Z,95136